Portada
METAR-TAF:

METAR-TAF

Aeroports :

Plataforma petroliera

P11-b, Països Baixos

latitud: 52-21-36N, longitud: 3-20-30E, altitud: 24 m

Observació

L'informe es va fer fa 17 minuts, a les 07:25 UTC
Vent 23 kt del Oest/Nord-Oest, variant entre Sud/Sud-Oest i Nord/Nord-Est
Temperatura 5°C
Humitat 81%
Pressió 995 hPa
Visibilitat 10 km o més
Núvols disperses a una alçada de 1500 ft, Cumulonimbus.
Núvols disperses a una alçada de 2100 ft

METAR: EHPG 260725Z AUTO 29023KT 210V020 9999 SCT015CB SCT021 05/02 Q0995

Hora: 08:42 (07:42 UTC)


TAF: manca

Observacions i pronòstics meteorològics de més de 4000 aeroports (METAR i TAF).

Les estacions disponibles són els punts grocs i vermells al mapa.

Posi el ratolí al punt desitjat per veure el nom de l'estació.

Feu clic per veure les observacions i els pronòstics meteorològics.

Per canviar el mapa: feu clic els botons verds amb una creu de color negre per apropar; al botó verd amb un guió per allunyar la imatge; o en les fletxes verdes per a mapes adjacents.


METAR-TAF: